sensor_id;sensor_type;location;lat;lon;timestamp;P1;durP1;ratioP1;P2;durP2;ratioP2
64282;SDS011;50497;50.720;-2.084;2022-11-15T00:00:48;8.20;;;1.80;;
64282;SDS011;50497;50.720;-2.084;2022-11-15T00:03:15;8.38;;;1.45;;
64282;SDS011;50497;50.720;-2.084;2022-11-15T00:05:51;8.07;;;1.55;;
64282;SDS011;50497;50.720;-2.084;2022-11-15T00:08:17;9.18;;;1.58;;
64282;SDS011;50497;50.720;-2.084;2022-11-15T00:10:54;8.82;;;1.70;;
64282;SDS011;50497;50.720;-2.084;2022-11-15T00:13:20;8.75;;;1.70;;
64282;SDS011;50497;50.720;-2.084;2022-11-15T00:15:45;10.52;;;1.70;;
64282;SDS011;50497;50.720;-2.084;2022-11-15T00:18:12;7.13;;;1.48;;
64282;SDS011;50497;50.720;-2.084;2022-11-15T00:20:38;10.00;;;1.85;;
64282;SDS011;50497;50.720;-2.084;2022-11-15T00:23:04;7.22;;;1.55;;
64282;SDS011;50497;50.720;-2.084;2022-11-15T00:25:30;7.57;;;1.67;;
64282;SDS011;50497;50.720;-2.084;2022-11-15T00:27:56;10.80;;;1.65;;
64282;SDS011;50497;50.720;-2.084;2022-11-15T00:30:23;12.93;;;1.98;;
64282;SDS011;50497;50.720;-2.084;2022-11-15T00:32:48;9.60;;;1.77;;
64282;SDS011;50497;50.720;-2.084;2022-11-15T00:35:14;8.20;;;1.77;;
64282;SDS011;50497;50.720;-2.084;2022-11-15T00:37:39;11.75;;;1.85;;
64282;SDS011;50497;50.720;-2.084;2022-11-15T00:40:05;10.52;;;1.65;;
64282;SDS011;50497;50.720;-2.084;2022-11-15T00:42:31;7.95;;;1.60;;
64282;SDS011;50497;50.720;-2.084;2022-11-15T00:44:56;11.55;;;2.08;;
64282;SDS011;50497;50.720;-2.084;2022-11-15T00:47:22;8.95;;;1.60;;
64282;SDS011;50497;50.720;-2.084;2022-11-15T00:49:47;9.50;;;2.00;;
64282;SDS011;50497;50.720;-2.084;2022-11-15T00:52:13;9.20;;;1.85;;
64282;SDS011;50497;50.720;-2.084;2022-11-15T00:54:38;9.95;;;1.80;;
64282;SDS011;50497;50.720;-2.084;2022-11-15T00:57:04;10.73;;;1.95;;
64282;SDS011;50497;50.720;-2.084;2022-11-15T00:59:30;10.00;;;1.80;;
64282;SDS011;50497;50.720;-2.084;2022-11-15T01:01:55;11.02;;;1.90;;
64282;SDS011;50497;50.720;-2.084;2022-11-15T01:04:20;8.00;;;1.67;;
64282;SDS011;50497;50.720;-2.084;2022-11-15T01:06:46;10.05;;;1.92;;
64282;SDS011;50497;50.720;-2.084;2022-11-15T01:09:12;6.93;;;1.65;;
64282;SDS011;50497;50.720;-2.084;2022-11-15T01:11:38;9.13;;;1.77;;
64282;SDS011;50497;50.720;-2.084;2022-11-15T01:14:04;9.75;;;2.75;;
64282;SDS011;50497;50.720;-2.084;2022-11-15T01:16:29;9.05;;;1.83;;
64282;SDS011;50497;50.720;-2.084;2022-11-15T01:18:55;10.07;;;1.90;;
64282;SDS011;50497;50.720;-2.084;2022-11-15T01:21:20;10.75;;;1.85;;
64282;SDS011;50497;50.720;-2.084;2022-11-15T01:23:46;10.73;;;1.58;;
64282;SDS011;50497;50.720;-2.084;2022-11-15T01:26:13;9.52;;;1.77;;
64282;SDS011;50497;50.720;-2.084;2022-11-15T01:28:40;9.50;;;1.67;;
64282;SDS011;50497;50.720;-2.084;2022-11-15T01:31:09;9.57;;;1.75;;
64282;SDS011;50497;50.720;-2.084;2022-11-15T01:33:37;7.90;;;2.13;;
64282;SDS011;50497;50.720;-2.084;2022-11-15T01:36:06;9.35;;;1.85;;
64282;SDS011;50497;50.720;-2.084;2022-11-15T01:38:33;7.50;;;1.65;;
64282;SDS011;50497;50.720;-2.084;2022-11-15T01:40:59;8.05;;;1.90;;
64282;SDS011;50497;50.720;-2.084;2022-11-15T01:43:29;12.68;;;2.00;;
64282;SDS011;50497;50.720;-2.084;2022-11-15T01:48:47;7.70;;;1.73;;
64282;SDS011;50497;50.720;-2.084;2022-11-15T01:51:15;8.70;;;1.70;;
64282;SDS011;50497;50.720;-2.084;2022-11-15T01:53:42;8.48;;;1.55;;
64282;SDS011;50497;50.720;-2.084;2022-11-15T01:56:13;8.00;;;1.73;;
64282;SDS011;50497;50.720;-2.084;2022-11-15T01:58:43;8.65;;;1.63;;
64282;SDS011;50497;50.720;-2.084;2022-11-15T02:01:11;9.85;;;2.38;;
64282;SDS011;50497;50.720;-2.084;2022-11-15T02:03:50;12.10;;;2.17;;
64282;SDS011;50497;50.720;-2.084;2022-11-15T02:06:21;10.13;;;1.65;;
64282;SDS011;50497;50.720;-2.084;2022-11-15T02:08:47;11.40;;;2.03;;
64282;SDS011;50497;50.720;-2.084;2022-11-15T02:11:13;9.30;;;1.75;;
64282;SDS011;50497;50.720;-2.084;2022-11-15T02:13:38;13.82;;;2.70;;
64282;SDS011;50497;50.720;-2.084;2022-11-15T02:19:13;10.63;;;2.22;;
64282;SDS011;50497;50.720;-2.084;2022-11-15T02:30:04;11.73;;;2.50;;
64282;SDS011;50497;50.720;-2.084;2022-11-15T02:33:00;16.45;;;2.65;;
64282;SDS011;50497;50.720;-2.084;2022-11-15T02:35:40;10.75;;;2.75;;
64282;SDS011;50497;50.720;-2.084;2022-11-15T02:38:18;12.93;;;2.60;;
64282;SDS011;50497;50.720;-2.084;2022-11-15T02:43:31;9.73;;;2.10;;
64282;SDS011;50497;50.720;-2.084;2022-11-15T02:49:28;8.40;;;2.10;;
64282;SDS011;50497;50.720;-2.084;2022-11-15T02:51:56;11.65;;;2.30;;
64282;SDS011;50497;50.720;-2.084;2022-11-15T02:54:23;10.45;;;2.40;;
64282;SDS011;50497;50.720;-2.084;2022-11-15T02:56:51;11.95;;;2.35;;
64282;SDS011;50497;50.720;-2.084;2022-11-15T03:01:55;13.95;;;2.80;;
64282;SDS011;50497;50.720;-2.084;2022-11-15T03:07:30;9.15;;;2.08;;
64282;SDS011;50497;50.720;-2.084;2022-11-15T03:10:08;17.13;;;3.38;;
64282;SDS011;50497;50.720;-2.084;2022-11-15T03:12:46;15.25;;;2.47;;
64282;SDS011;50497;50.720;-2.084;2022-11-15T03:15:26;12.57;;;2.63;;
64282;SDS011;50497;50.720;-2.084;2022-11-15T03:17:55;17.23;;;2.40;;
64282;SDS011;50497;50.720;-2.084;2022-11-15T03:20:22;13.48;;;2.22;;
64282;SDS011;50497;50.720;-2.084;2022-11-15T03:22:52;9.52;;;2.83;;
64282;SDS011;50497;50.720;-2.084;2022-11-15T03:25:20;10.90;;;2.08;;
64282;SDS011;50497;50.720;-2.084;2022-11-15T03:27:50;14.48;;;2.67;;
64282;SDS011;50497;50.720;-2.084;2022-11-15T03:30:18;12.68;;;2.30;;
64282;SDS011;50497;50.720;-2.084;2022-11-15T03:32:49;14.38;;;3.20;;
64282;SDS011;50497;50.720;-2.084;2022-11-15T03:35:19;10.27;;;2.30;;
64282;SDS011;50497;50.720;-2.084;2022-11-15T03:40:40;13.40;;;2.88;;
64282;SDS011;50497;50.720;-2.084;2022-11-15T03:45:39;17.30;;;2.97;;
64282;SDS011;50497;50.720;-2.084;2022-11-15T03:48:21;13.65;;;3.20;;
64282;SDS011;50497;50.720;-2.084;2022-11-15T03:50:50;12.10;;;3.03;;
64282;SDS011;50497;50.720;-2.084;2022-11-15T03:53:16;17.42;;;2.80;;
64282;SDS011;50497;50.720;-2.084;2022-11-15T03:55:41;16.35;;;2.50;;
64282;SDS011;50497;50.720;-2.084;2022-11-15T03:58:06;13.35;;;2.22;;
64282;SDS011;50497;50.720;-2.084;2022-11-15T04:00:32;20.92;;;2.88;;
64282;SDS011;50497;50.720;-2.084;2022-11-15T04:02:57;15.25;;;2.55;;
64282;SDS011;50497;50.720;-2.084;2022-11-15T04:05:23;14.40;;;2.58;;
64282;SDS011;50497;50.720;-2.084;2022-11-15T04:07:48;14.13;;;2.55;;
64282;SDS011;50497;50.720;-2.084;2022-11-15T04:10:14;12.68;;;2.80;;
64282;SDS011;50497;50.720;-2.084;2022-11-15T04:12:41;14.00;;;2.72;;
64282;SDS011;50497;50.720;-2.084;2022-11-15T04:15:12;22.35;;;3.20;;
64282;SDS011;50497;50.720;-2.084;2022-11-15T04:17:39;13.57;;;2.55;;
64282;SDS011;50497;50.720;-2.084;2022-11-15T04:23:05;18.77;;;3.45;;
64282;SDS011;50497;50.720;-2.084;2022-11-15T04:25:54;16.73;;;3.10;;
64282;SDS011;50497;50.720;-2.084;2022-11-15T04:28:21;16.58;;;3.22;;
64282;SDS011;50497;50.720;-2.084;2022-11-15T04:30:47;15.45;;;2.85;;
64282;SDS011;50497;50.720;-2.084;2022-11-15T04:33:13;18.63;;;3.97;;
64282;SDS011;50497;50.720;-2.084;2022-11-15T04:35:38;14.07;;;2.90;;
64282;SDS011;50497;50.720;-2.084;2022-11-15T04:38:05;17.17;;;2.45;;
64282;SDS011;50497;50.720;-2.084;2022-11-15T04:40:32;15.82;;;3.55;;
64282;SDS011;50497;50.720;-2.084;2022-11-15T04:42:57;17.85;;;3.28;;
64282;SDS011;50497;50.720;-2.084;2022-11-15T04:45:23;16.50;;;3.30;;
64282;SDS011;50497;50.720;-2.084;2022-11-15T04:47:48;11.68;;;3.17;;
64282;SDS011;50497;50.720;-2.084;2022-11-15T04:50:14;17.42;;;3.35;;
64282;SDS011;50497;50.720;-2.084;2022-11-15T04:52:41;28.88;;;4.70;;
64282;SDS011;50497;50.720;-2.084;2022-11-15T04:55:08;19.95;;;3.58;;
64282;SDS011;50497;50.720;-2.084;2022-11-15T04:57:35;18.88;;;3.40;;
64282;SDS011;50497;50.720;-2.084;2022-11-15T05:00:02;14.25;;;3.63;;
64282;SDS011;50497;50.720;-2.084;2022-11-15T05:02:29;18.85;;;3.28;;
64282;SDS011;50497;50.720;-2.084;2022-11-15T05:07:40;17.90;;;2.87;;
64282;SDS011;50497;50.720;-2.084;2022-11-15T05:10:05;16.67;;;2.65;;
64282;SDS011;50497;50.720;-2.084;2022-11-15T05:12:31;14.80;;;3.70;;
64282;SDS011;50497;50.720;-2.084;2022-11-15T05:14:56;19.75;;;3.13;;
64282;SDS011;50497;50.720;-2.084;2022-11-15T05:17:22;17.63;;;3.63;;
64282;SDS011;50497;50.720;-2.084;2022-11-15T05:19:47;15.70;;;3.10;;
64282;SDS011;50497;50.720;-2.084;2022-11-15T05:22:12;19.45;;;3.45;;
64282;SDS011;50497;50.720;-2.084;2022-11-15T05:24:38;15.02;;;3.53;;
64282;SDS011;50497;50.720;-2.084;2022-11-15T05:27:03;15.80;;;3.58;;
64282;SDS011;50497;50.720;-2.084;2022-11-15T05:29:29;18.67;;;3.20;;
64282;SDS011;50497;50.720;-2.084;2022-11-15T05:31:54;13.95;;;3.22;;
64282;SDS011;50497;50.720;-2.084;2022-11-15T05:34:19;16.73;;;3.60;;
64282;SDS011;50497;50.720;-2.084;2022-11-15T05:36:47;16.17;;;3.00;;
64282;SDS011;50497;50.720;-2.084;2022-11-15T05:39:13;12.88;;;2.72;;
64282;SDS011;50497;50.720;-2.084;2022-11-15T05:41:40;13.93;;;2.72;;
64282;SDS011;50497;50.720;-2.084;2022-11-15T05:44:16;12.68;;;3.30;;
64282;SDS011;50497;50.720;-2.084;2022-11-15T05:46:45;19.83;;;4.00;;
64282;SDS011;50497;50.720;-2.084;2022-11-15T05:49:15;15.02;;;3.60;;
64282;SDS011;50497;50.720;-2.084;2022-11-15T05:51:45;14.68;;;2.88;;
64282;SDS011;50497;50.720;-2.084;2022-11-15T05:54:12;19.55;;;3.42;;
64282;SDS011;50497;50.720;-2.084;2022-11-15T05:56:39;12.40;;;2.72;;
64282;SDS011;50497;50.720;-2.084;2022-11-15T05:59:04;18.77;;;3.08;;
64282;SDS011;50497;50.720;-2.084;2022-11-15T06:01:32;21.13;;;3.08;;
64282;SDS011;50497;50.720;-2.084;2022-11-15T06:03:57;14.63;;;3.47;;
64282;SDS011;50497;50.720;-2.084;2022-11-15T06:06:23;15.88;;;2.70;;
64282;SDS011;50497;50.720;-2.084;2022-11-15T06:08:48;19.48;;;3.20;;
64282;SDS011;50497;50.720;-2.084;2022-11-15T06:11:14;15.02;;;2.85;;
64282;SDS011;50497;50.720;-2.084;2022-11-15T06:13:39;16.67;;;2.60;;
64282;SDS011;50497;50.720;-2.084;2022-11-15T06:16:05;13.25;;;2.60;;
64282;SDS011;50497;50.720;-2.084;2022-11-15T06:18:34;17.98;;;3.03;;
64282;SDS011;50497;50.720;-2.084;2022-11-15T06:20:59;19.90;;;2.80;;
64282;SDS011;50497;50.720;-2.084;2022-11-15T06:23:25;16.15;;;2.83;;
64282;SDS011;50497;50.720;-2.084;2022-11-15T06:25:51;13.93;;;2.47;;
64282;SDS011;50497;50.720;-2.084;2022-11-15T06:28:20;21.02;;;3.13;;
64282;SDS011;50497;50.720;-2.084;2022-11-15T06:30:45;16.58;;;3.10;;
64282;SDS011;50497;50.720;-2.084;2022-11-15T06:33:11;21.52;;;3.13;;
64282;SDS011;50497;50.720;-2.084;2022-11-15T06:35:36;19.92;;;3.25;;
64282;SDS011;50497;50.720;-2.084;2022-11-15T06:38:06;23.27;;;3.20;;
64282;SDS011;50497;50.720;-2.084;2022-11-15T06:40:34;24.50;;;2.97;;
64282;SDS011;50497;50.720;-2.084;2022-11-15T06:43:02;15.57;;;2.83;;
64282;SDS011;50497;50.720;-2.084;2022-11-15T06:45:28;15.48;;;2.97;;
64282;SDS011;50497;50.720;-2.084;2022-11-15T06:47:53;27.63;;;3.95;;
64282;SDS011;50497;50.720;-2.084;2022-11-15T06:50:19;20.75;;;3.60;;
64282;SDS011;50497;50.720;-2.084;2022-11-15T06:52:44;20.98;;;3.88;;
64282;SDS011;50497;50.720;-2.084;2022-11-15T06:55:10;12.75;;;2.80;;
64282;SDS011;50497;50.720;-2.084;2022-11-15T06:57:36;21.02;;;2.75;;
64282;SDS011;50497;50.720;-2.084;2022-11-15T07:00:04;19.92;;;2.75;;
64282;SDS011;50497;50.720;-2.084;2022-11-15T07:02:30;17.70;;;3.05;;
64282;SDS011;50497;50.720;-2.084;2022-11-15T07:04:56;13.90;;;2.70;;
64282;SDS011;50497;50.720;-2.084;2022-11-15T07:07:21;17.58;;;2.97;;
64282;SDS011;50497;50.720;-2.084;2022-11-15T07:09:47;13.48;;;2.50;;
64282;SDS011;50497;50.720;-2.084;2022-11-15T07:12:12;12.50;;;2.70;;
64282;SDS011;50497;50.720;-2.084;2022-11-15T07:14:38;17.92;;;2.88;;
64282;SDS011;50497;50.720;-2.084;2022-11-15T07:17:04;18.92;;;3.00;;
64282;SDS011;50497;50.720;-2.084;2022-11-15T07:19:30;19.98;;;2.65;;
64282;SDS011;50497;50.720;-2.084;2022-11-15T07:21:55;17.23;;;2.88;;
64282;SDS011;50497;50.720;-2.084;2022-11-15T07:24:21;12.50;;;2.55;;
64282;SDS011;50497;50.720;-2.084;2022-11-15T07:26:46;17.65;;;2.97;;
64282;SDS011;50497;50.720;-2.084;2022-11-15T07:29:11;13.60;;;2.67;;
64282;SDS011;50497;50.720;-2.084;2022-11-15T07:31:37;12.00;;;2.35;;
64282;SDS011;50497;50.720;-2.084;2022-11-15T07:34:03;13.30;;;2.33;;
64282;SDS011;50497;50.720;-2.084;2022-11-15T07:36:28;12.23;;;2.22;;
64282;SDS011;50497;50.720;-2.084;2022-11-15T07:38:54;10.73;;;2.10;;
64282;SDS011;50497;50.720;-2.084;2022-11-15T07:41:19;13.23;;;2.40;;
64282;SDS011;50497;50.720;-2.084;2022-11-15T07:43:45;12.30;;;2.38;;
64282;SDS011;50497;50.720;-2.084;2022-11-15T07:46:10;14.35;;;2.10;;
64282;SDS011;50497;50.720;-2.084;2022-11-15T07:48:36;17.02;;;2.95;;
64282;SDS011;50497;50.720;-2.084;2022-11-15T07:51:04;18.67;;;2.80;;
64282;SDS011;50497;50.720;-2.084;2022-11-15T07:53:30;23.42;;;3.28;;
64282;SDS011;50497;50.720;-2.084;2022-11-15T07:55:55;16.77;;;2.60;;
64282;SDS011;50497;50.720;-2.084;2022-11-15T07:58:21;18.45;;;3.03;;
64282;SDS011;50497;50.720;-2.084;2022-11-15T08:00:47;14.95;;;2.67;;
64282;SDS011;50497;50.720;-2.084;2022-11-15T08:03:16;15.50;;;2.40;;
64282;SDS011;50497;50.720;-2.084;2022-11-15T08:05:42;15.35;;;3.00;;
64282;SDS011;50497;50.720;-2.084;2022-11-15T08:08:14;14.77;;;2.25;;
64282;SDS011;50497;50.720;-2.084;2022-11-15T08:10:40;16.73;;;3.10;;
64282;SDS011;50497;50.720;-2.084;2022-11-15T08:13:08;16.30;;;2.40;;
64282;SDS011;50497;50.720;-2.084;2022-11-15T08:15:35;15.15;;;2.67;;
64282;SDS011;50497;50.720;-2.084;2022-11-15T08:18:06;11.77;;;2.10;;
64282;SDS011;50497;50.720;-2.084;2022-11-15T08:20:37;16.77;;;2.53;;
64282;SDS011;50497;50.720;-2.084;2022-11-15T08:23:02;13.40;;;3.03;;
64282;SDS011;50497;50.720;-2.084;2022-11-15T08:25:29;12.02;;;2.25;;
64282;SDS011;50497;50.720;-2.084;2022-11-15T08:27:57;14.88;;;3.10;;
64282;SDS011;50497;50.720;-2.084;2022-11-15T08:30:24;9.98;;;2.13;;
64282;SDS011;50497;50.720;-2.084;2022-11-15T08:35:16;10.07;;;2.00;;
64282;SDS011;50497;50.720;-2.084;2022-11-15T08:37:42;11.82;;;2.50;;
64282;SDS011;50497;50.720;-2.084;2022-11-15T08:40:08;9.30;;;1.92;;
64282;SDS011;50497;50.720;-2.084;2022-11-15T08:42:34;12.25;;;1.80;;
64282;SDS011;50497;50.720;-2.084;2022-11-15T08:45:00;10.85;;;2.10;;
64282;SDS011;50497;50.720;-2.084;2022-11-15T08:47:25;9.73;;;1.92;;
64282;SDS011;50497;50.720;-2.084;2022-11-15T08:49:51;8.80;;;1.48;;
64282;SDS011;50497;50.720;-2.084;2022-11-15T08:52:17;9.75;;;1.67;;
64282;SDS011;50497;50.720;-2.084;2022-11-15T08:54:42;12.63;;;2.05;;
64282;SDS011;50497;50.720;-2.084;2022-11-15T08:57:07;17.67;;;2.88;;
64282;SDS011;50497;50.720;-2.084;2022-11-15T09:02:00;12.65;;;2.85;;
64282;SDS011;50497;50.720;-2.084;2022-11-15T09:04:25;18.70;;;2.90;;
64282;SDS011;50497;50.720;-2.084;2022-11-15T09:06:50;13.48;;;2.63;;
64282;SDS011;50497;50.720;-2.084;2022-11-15T09:09:20;19.58;;;2.60;;
64282;SDS011;50497;50.720;-2.084;2022-11-15T09:11:45;16.73;;;2.95;;
64282;SDS011;50497;50.720;-2.084;2022-11-15T09:14:11;17.05;;;2.50;;
64282;SDS011;50497;50.720;-2.084;2022-11-15T09:16:37;18.52;;;3.00;;
64282;SDS011;50497;50.720;-2.084;2022-11-15T09:19:03;19.98;;;3.17;;
64282;SDS011;50497;50.720;-2.084;2022-11-15T09:21:29;14.93;;;2.80;;
64282;SDS011;50497;50.720;-2.084;2022-11-15T09:23:55;15.95;;;3.00;;
64282;SDS011;50497;50.720;-2.084;2022-11-15T09:26:21;17.45;;;3.60;;
64282;SDS011;50497;50.720;-2.084;2022-11-15T09:28:46;10.50;;;2.30;;
64282;SDS011;50497;50.720;-2.084;2022-11-15T09:31:12;19.33;;;2.95;;
64282;SDS011;50497;50.720;-2.084;2022-11-15T09:33:37;15.68;;;2.92;;
64282;SDS011;50497;50.720;-2.084;2022-11-15T09:36:03;17.80;;;2.72;;
64282;SDS011;50497;50.720;-2.084;2022-11-15T09:38:31;14.65;;;2.70;;
64282;SDS011;50497;50.720;-2.084;2022-11-15T09:41:07;25.67;;;3.42;;
64282;SDS011;50497;50.720;-2.084;2022-11-15T09:49:26;23.38;;;3.78;;
64282;SDS011;50497;50.720;-2.084;2022-11-15T09:51:52;29.52;;;3.92;;
64282;SDS011;50497;50.720;-2.084;2022-11-15T09:54:29;25.33;;;3.83;;
64282;SDS011;50497;50.720;-2.084;2022-11-15T10:04:42;26.98;;;3.80;;
64282;SDS011;50497;50.720;-2.084;2022-11-15T10:10:00;20.30;;;3.20;;
64282;SDS011;50497;50.720;-2.084;2022-11-15T10:12:39;18.75;;;3.97;;
64282;SDS011;50497;50.720;-2.084;2022-11-15T10:15:12;16.60;;;3.10;;
64282;SDS011;50497;50.720;-2.084;2022-11-15T10:22:51;14.02;;;2.70;;
64282;SDS011;50497;50.720;-2.084;2022-11-15T10:25:23;8.93;;;1.40;;
64282;SDS011;50497;50.720;-2.084;2022-11-15T10:30:21;6.45;;;1.42;;
64282;SDS011;50497;50.720;-2.084;2022-11-15T10:32:47;7.07;;;1.38;;
64282;SDS011;50497;50.720;-2.084;2022-11-15T10:37:50;4.68;;;1.50;;
64282;SDS011;50497;50.720;-2.084;2022-11-15T10:40:19;5.60;;;1.30;;
64282;SDS011;50497;50.720;-2.084;2022-11-15T10:42:47;3.75;;;1.15;;
64282;SDS011;50497;50.720;-2.084;2022-11-15T10:45:29;3.35;;;0.95;;
64282;SDS011;50497;50.720;-2.084;2022-11-15T10:48:41;4.22;;;0.88;;
64282;SDS011;50497;50.720;-2.084;2022-11-15T10:50:44;3.88;;;1.00;;
64282;SDS011;50497;50.720;-2.084;2022-11-15T10:55:39;1.58;;;0.90;;
64282;SDS011;50497;50.720;-2.084;2022-11-15T10:58:19;2.35;;;1.00;;
64282;SDS011;50497;50.720;-2.084;2022-11-15T11:00:56;5.85;;;1.35;;
64282;SDS011;50497;50.720;-2.084;2022-11-15T11:03:35;6.07;;;1.83;;
64282;SDS011;50497;50.720;-2.084;2022-11-15T11:06:13;4.70;;;1.80;;
64282;SDS011;50497;50.720;-2.084;2022-11-15T11:08:52;6.00;;;2.15;;
64282;SDS011;50497;50.720;-2.084;2022-11-15T11:11:22;12.35;;;7.30;;
64282;SDS011;50497;50.720;-2.084;2022-11-15T11:13:48;21.10;;;11.82;;
64282;SDS011;50497;50.720;-2.084;2022-11-15T11:21:09;6.32;;;2.83;;
64282;SDS011;50497;50.720;-2.084;2022-11-15T11:23:47;4.35;;;1.50;;
64282;SDS011;50497;50.720;-2.084;2022-11-15T11:26:25;5.70;;;1.80;;
64282;SDS011;50497;50.720;-2.084;2022-11-15T11:32:03;12.93;;;5.57;;
64282;SDS011;50497;50.720;-2.084;2022-11-15T11:34:49;17.02;;;7.82;;
64282;SDS011;50497;50.720;-2.084;2022-11-15T11:48:42;5.55;;;1.83;;
64282;SDS011;50497;50.720;-2.084;2022-11-15T11:51:24;8.25;;;1.80;;
64282;SDS011;50497;50.720;-2.084;2022-11-15T11:53:55;5.13;;;1.42;;
64282;SDS011;50497;50.720;-2.084;2022-11-15T11:56:29;4.72;;;1.58;;
64282;SDS011;50497;50.720;-2.084;2022-11-15T11:59:03;4.47;;;1.50;;
64282;SDS011;50497;50.720;-2.084;2022-11-15T12:01:41;5.35;;;1.65;;
64282;SDS011;50497;50.720;-2.084;2022-11-15T12:04:13;6.22;;;1.77;;
64282;SDS011;50497;50.720;-2.084;2022-11-15T12:06:48;4.40;;;1.90;;
64282;SDS011;50497;50.720;-2.084;2022-11-15T12:14:44;2.92;;;0.93;;
64282;SDS011;50497;50.720;-2.084;2022-11-15T12:17:16;4.15;;;1.10;;
64282;SDS011;50497;50.720;-2.084;2022-11-15T12:19:45;4.78;;;1.00;;
64282;SDS011;50497;50.720;-2.084;2022-11-15T12:22:31;6.82;;;1.20;;
64282;SDS011;50497;50.720;-2.084;2022-11-15T12:27:57;5.50;;;1.27;;
64282;SDS011;50497;50.720;-2.084;2022-11-15T12:33:42;6.57;;;1.30;;
64282;SDS011;50497;50.720;-2.084;2022-11-15T12:41:24;5.70;;;1.30;;
64282;SDS011;50497;50.720;-2.084;2022-11-15T12:44:01;5.25;;;1.50;;
64282;SDS011;50497;50.720;-2.084;2022-11-15T12:59:50;6.53;;;1.40;;
64282;SDS011;50497;50.720;-2.084;2022-11-15T13:08:01;7.32;;;1.25;;
64282;SDS011;50497;50.720;-2.084;2022-11-15T13:12:59;9.55;;;1.80;;
64282;SDS011;50497;50.720;-2.084;2022-11-15T13:17:55;8.70;;;2.00;;
64282;SDS011;50497;50.720;-2.084;2022-11-15T13:20:25;8.15;;;1.67;;
64282;SDS011;50497;50.720;-2.084;2022-11-15T13:30:35;7.80;;;1.30;;
64282;SDS011;50497;50.720;-2.084;2022-11-15T13:33:07;7.03;;;1.60;;
64282;SDS011;50497;50.720;-2.084;2022-11-15T13:35:39;5.57;;;1.30;;
64282;SDS011;50497;50.720;-2.084;2022-11-15T13:38:11;8.00;;;1.50;;
64282;SDS011;50497;50.720;-2.084;2022-11-15T13:41:19;6.18;;;1.52;;
64282;SDS011;50497;50.720;-2.084;2022-11-15T13:43:46;5.97;;;1.20;;
64282;SDS011;50497;50.720;-2.084;2022-11-15T13:46:14;8.07;;;1.40;;
64282;SDS011;50497;50.720;-2.084;2022-11-15T13:48:52;5.97;;;1.40;;
64282;SDS011;50497;50.720;-2.084;2022-11-15T13:54:35;9.15;;;1.35;;
64282;SDS011;50497;50.720;-2.084;2022-11-15T13:57:12;7.13;;;1.33;;
64282;SDS011;50497;50.720;-2.084;2022-11-15T13:59:45;6.60;;;1.45;;
64282;SDS011;50497;50.720;-2.084;2022-11-15T14:02:17;6.53;;;1.27;;
64282;SDS011;50497;50.720;-2.084;2022-11-15T14:04:46;5.70;;;1.42;;
64282;SDS011;50497;50.720;-2.084;2022-11-15T14:07:17;5.18;;;1.20;;
64282;SDS011;50497;50.720;-2.084;2022-11-15T14:09:45;6.07;;;1.50;;
64282;SDS011;50497;50.720;-2.084;2022-11-15T14:15:19;6.50;;;1.20;;
64282;SDS011;50497;50.720;-2.084;2022-11-15T14:17:52;4.82;;;1.23;;
64282;SDS011;50497;50.720;-2.084;2022-11-15T14:23:02;7.15;;;1.38;;
64282;SDS011;50497;50.720;-2.084;2022-11-15T14:25:29;6.43;;;1.30;;
64282;SDS011;50497;50.720;-2.084;2022-11-15T14:30:54;6.22;;;1.40;;
64282;SDS011;50497;50.720;-2.084;2022-11-15T14:33:37;7.63;;;1.08;;
64282;SDS011;50497;50.720;-2.084;2022-11-15T14:36:05;8.82;;;1.30;;
64282;SDS011;50497;50.720;-2.084;2022-11-15T14:38:36;7.32;;;1.33;;
64282;SDS011;50497;50.720;-2.084;2022-11-15T14:41:02;7.57;;;1.23;;
64282;SDS011;50497;50.720;-2.084;2022-11-15T14:43:27;6.90;;;1.10;;
64282;SDS011;50497;50.720;-2.084;2022-11-15T14:45:53;6.60;;;1.50;;
64282;SDS011;50497;50.720;-2.084;2022-11-15T14:48:18;4.53;;;1.30;;
64282;SDS011;50497;50.720;-2.084;2022-11-15T14:50:44;6.13;;;1.00;;
64282;SDS011;50497;50.720;-2.084;2022-11-15T14:53:16;6.28;;;1.30;;
64282;SDS011;50497;50.720;-2.084;2022-11-15T14:55:42;4.30;;;1.20;;
64282;SDS011;50497;50.720;-2.084;2022-11-15T14:58:08;6.75;;;1.20;;
64282;SDS011;50497;50.720;-2.084;2022-11-15T15:00:34;7.60;;;1.10;;
64282;SDS011;50497;50.720;-2.084;2022-11-15T15:03:04;6.63;;;1.10;;
64282;SDS011;50497;50.720;-2.084;2022-11-15T15:08:00;7.55;;;1.50;;
64282;SDS011;50497;50.720;-2.084;2022-11-15T15:10:31;6.43;;;1.40;;
64282;SDS011;50497;50.720;-2.084;2022-11-15T15:12:58;8.93;;;1.52;;
64282;SDS011;50497;50.720;-2.084;2022-11-15T15:15:25;6.82;;;1.42;;
64282;SDS011;50497;50.720;-2.084;2022-11-15T15:17:54;12.02;;;2.10;;
64282;SDS011;50497;50.720;-2.084;2022-11-15T15:20:20;5.57;;;1.08;;
64282;SDS011;50497;50.720;-2.084;2022-11-15T15:22:45;8.40;;;1.40;;
64282;SDS011;50497;50.720;-2.084;2022-11-15T15:25:32;6.28;;;1.35;;
64282;SDS011;50497;50.720;-2.084;2022-11-15T15:28:00;8.10;;;1.60;;
64282;SDS011;50497;50.720;-2.084;2022-11-15T15:32:52;8.63;;;1.58;;
64282;SDS011;50497;50.720;-2.084;2022-11-15T15:35:19;4.90;;;1.40;;
64282;SDS011;50497;50.720;-2.084;2022-11-15T15:37:45;7.18;;;1.35;;
64282;SDS011;50497;50.720;-2.084;2022-11-15T15:40:18;6.50;;;1.30;;
64282;SDS011;50497;50.720;-2.084;2022-11-15T15:42:46;7.07;;;1.40;;
64282;SDS011;50497;50.720;-2.084;2022-11-15T15:45:12;6.13;;;1.20;;
64282;SDS011;50497;50.720;-2.084;2022-11-15T15:47:37;6.88;;;1.55;;
64282;SDS011;50497;50.720;-2.084;2022-11-15T15:50:09;7.55;;;1.30;;
64282;SDS011;50497;50.720;-2.084;2022-11-15T15:52:42;12.15;;;2.28;;
64282;SDS011;50497;50.720;-2.084;2022-11-15T15:55:08;9.38;;;1.73;;
64282;SDS011;50497;50.720;-2.084;2022-11-15T15:57:33;10.73;;;2.00;;
64282;SDS011;50497;50.720;-2.084;2022-11-15T15:59:59;8.65;;;1.50;;
64282;SDS011;50497;50.720;-2.084;2022-11-15T16:02:24;8.32;;;1.30;;
64282;SDS011;50497;50.720;-2.084;2022-11-15T16:04:50;11.85;;;1.60;;
64282;SDS011;50497;50.720;-2.084;2022-11-15T16:07:17;7.15;;;1.17;;
64282;SDS011;50497;50.720;-2.084;2022-11-15T16:09:53;9.65;;;1.42;;
64282;SDS011;50497;50.720;-2.084;2022-11-15T16:12:25;11.25;;;1.80;;
64282;SDS011;50497;50.720;-2.084;2022-11-15T16:14:58;9.23;;;1.67;;
64282;SDS011;50497;50.720;-2.084;2022-11-15T16:17:33;8.07;;;1.40;;
64282;SDS011;50497;50.720;-2.084;2022-11-15T16:20:04;9.80;;;1.50;;
64282;SDS011;50497;50.720;-2.084;2022-11-15T16:22:29;7.85;;;2.22;;
64282;SDS011;50497;50.720;-2.084;2022-11-15T16:24:56;7.63;;;1.45;;
64282;SDS011;50497;50.720;-2.084;2022-11-15T16:27:21;6.13;;;1.75;;
64282;SDS011;50497;50.720;-2.084;2022-11-15T16:29:48;10.82;;;1.85;;
64282;SDS011;50497;50.720;-2.084;2022-11-15T16:32:13;10.27;;;1.60;;
64282;SDS011;50497;50.720;-2.084;2022-11-15T16:34:39;9.57;;;1.50;;
64282;SDS011;50497;50.720;-2.084;2022-11-15T16:37:13;7.20;;;1.60;;
64282;SDS011;50497;50.720;-2.084;2022-11-15T16:39:47;14.68;;;1.50;;
64282;SDS011;50497;50.720;-2.084;2022-11-15T16:42:13;7.78;;;1.45;;
64282;SDS011;50497;50.720;-2.084;2022-11-15T16:44:38;10.90;;;1.95;;
64282;SDS011;50497;50.720;-2.084;2022-11-15T16:47:04;11.15;;;1.58;;
64282;SDS011;50497;50.720;-2.084;2022-11-15T16:49:30;7.60;;;1.58;;
64282;SDS011;50497;50.720;-2.084;2022-11-15T16:51:55;10.18;;;1.77;;
64282;SDS011;50497;50.720;-2.084;2022-11-15T16:54:20;10.63;;;1.92;;
64282;SDS011;50497;50.720;-2.084;2022-11-15T16:56:46;9.73;;;2.03;;
64282;SDS011;50497;50.720;-2.084;2022-11-15T16:59:15;13.15;;;3.95;;
64282;SDS011;50497;50.720;-2.084;2022-11-15T17:01:42;9.77;;;1.50;;
64282;SDS011;50497;50.720;-2.084;2022-11-15T17:04:15;11.00;;;1.80;;
64282;SDS011;50497;50.720;-2.084;2022-11-15T17:06:43;9.98;;;2.10;;
64282;SDS011;50497;50.720;-2.084;2022-11-15T17:09:16;8.88;;;2.00;;